Time;durP1;ratioP1;P1;durP2;ratioP2;P2;SDS_P1;SDS_P2;PMS_P1;PMS_P2;Temp;Humidity;BMP_temperature;BMP_pressure;BME280_temperature;BME280_humidity;BME280_pressure;Samples;Min_cycle;Max_cycle;Signal;HPM_P1;HPM_P2
2022/03/02 00:00:45;;;;;;;84.43;33.00;;;-2.40;98.40;;;;;;10407991;28;20517;-87
2022/03/02 00:05:46;;;;;;;81.97;30.97;;;-2.40;98.70;;;;;;10408116;28;20033;-87
2022/03/02 00:10:47;;;;;;;77.73;29.90;;;-2.50;99.30;;;;;;10407744;28;20029;-86
2022/03/02 00:15:49;;;;;;;79.53;28.47;;;-2.50;99.70;;;;;;10406759;28;20115;-85
2022/03/02 00:20:50;;;;;;;69.07;26.47;;;-2.60;99.80;;;;;;10408015;28;20017;-87
2022/03/02 00:25:50;;;;;;;65.90;26.50;;;-2.60;99.90;;;;;;10407062;28;20045;-87
2022/03/02 00:30:51;;;;;;;73.57;24.63;;;-2.50;99.70;;;;;;10408411;28;20026;-86
2022/03/02 00:35:52;;;;;;;59.07;25.23;;;-2.50;99.80;;;;;;10408777;28;20037;-86
2022/03/02 00:40:52;;;;;;;64.03;24.20;;;-2.50;99.90;;;;;;10406563;28;20393;-86
2022/03/02 00:45:53;;;;;;;54.73;22.27;;;-2.60;99.90;;;;;;10406814;28;20033;-86
2022/03/02 00:50:54;;;;;;;62.10;22.27;;;-2.60;99.90;;;;;;10406919;28;20072;-86
2022/03/02 00:55:55;;;;;;;60.20;22.57;;;-2.60;99.90;;;;;;10406926;28;20503;-86
2022/03/02 01:00:55;;;;;;;53.73;21.27;;;-2.60;99.90;;;;;;10405249;28;20029;-86
2022/03/02 01:05:56;;;;;;;57.73;22.23;;;-2.70;99.90;;;;;;10407015;28;20045;-87
2022/03/02 01:10:57;;;;;;;50.07;20.57;;;-2.70;99.90;;;;;;10404593;28;20029;-85
2022/03/02 01:15:57;;;;;;;50.37;21.17;;;-2.60;99.90;;;;;;10406715;28;20053;-86
2022/03/02 01:20:59;;;;;;;52.63;20.90;;;-2.60;99.90;;;;;;10410873;28;20037;-87
2022/03/02 01:26:00;;;;;;;55.47;21.90;;;-2.60;99.90;;;;;;10413836;28;20046;-87
2022/03/02 01:31:01;;;;;;;55.73;22.13;;;-2.60;99.90;;;;;;10411901;28;20056;-87
2022/03/02 01:36:02;;;;;;;56.77;21.53;;;-2.50;99.90;;;;;;10413758;28;20704;-86
2022/03/02 01:41:04;;;;;;;46.37;20.83;;;-2.50;99.60;;;;;;10412215;28;20052;-87
2022/03/02 01:46:05;;;;;;;55.13;21.30;;;-2.60;99.40;;;;;;10411204;28;20090;-88
2022/03/02 01:51:06;;;;;;;58.63;23.23;;;-2.70;99.90;;;;;;10413330;28;20170;-87
2022/03/02 01:56:07;;;;;;;56.73;21.30;;;-2.70;99.90;;;;;;10412244;28;20030;-86
2022/03/02 02:01:07;;;;;;;60.37;23.60;;;-2.60;99.90;;;;;;10412594;28;20401;-85
2022/03/02 02:06:09;;;;;;;56.33;22.93;;;-2.70;99.90;;;;;;10410644;28;20037;-85
2022/03/02 02:11:12;;;;;;;57.17;23.13;;;-2.70;99.90;;;;;;10412142;28;20382;-85
2022/03/02 02:16:13;;;;;;;55.17;23.23;;;-2.80;99.90;;;;;;10411833;28;20128;-86
2022/03/02 02:21:14;;;;;;;60.83;22.90;;;-2.70;99.90;;;;;;10410466;28;20030;-85
2022/03/02 02:26:14;;;;;;;62.77;23.83;;;-2.80;99.90;;;;;;10410439;28;20041;-87
2022/03/02 02:31:16;;;;;;;62.87;24.77;;;-2.70;99.90;;;;;;10410808;28;20180;-85
2022/03/02 02:36:17;;;;;;;65.70;26.33;;;-2.70;99.90;;;;;;10410950;28;20021;-87
2022/03/02 02:41:18;;;;;;;64.63;25.83;;;-2.70;99.90;;;;;;10409786;28;20033;-85
2022/03/02 02:46:19;;;;;;;67.50;26.33;;;-2.80;99.90;;;;;;10410542;28;20095;-85
2022/03/02 02:51:20;;;;;;;66.90;27.93;;;-2.90;99.90;;;;;;10410606;28;20029;-86
2022/03/02 02:56:21;;;;;;;67.37;25.67;;;-3.00;99.90;;;;;;10410403;28;20025;-84
2022/03/02 03:01:23;;;;;;;63.90;26.77;;;-3.10;99.90;;;;;;10409752;28;20069;-86
2022/03/02 03:06:24;;;;;;;62.77;23.27;;;-3.10;99.90;;;;;;10409191;28;20064;-85
2022/03/02 03:11:25;;;;;;;62.63;24.73;;;-3.10;99.90;;;;;;10410021;28;20033;-86
2022/03/02 03:16:25;;;;;;;64.67;24.87;;;-3.20;99.90;;;;;;10410587;28;20061;-85
2022/03/02 03:21:26;;;;;;;63.23;24.93;;;-3.20;99.90;;;;;;10408599;28;20097;-86
2022/03/02 03:26:27;;;;;;;66.13;26.30;;;-3.30;99.90;;;;;;10408011;28;20471;-85
2022/03/02 03:31:27;;;;;;;62.07;25.20;;;-3.20;99.90;;;;;;10395717;28;20034;-85
2022/03/02 03:36:28;;;;;;;67.83;26.37;;;-3.30;99.90;;;;;;10397691;28;20456;-85
2022/03/02 03:41:29;;;;;;;65.07;24.50;;;-3.30;99.90;;;;;;10408422;28;20040;-84
2022/03/02 03:46:29;;;;;;;66.40;25.73;;;-3.30;99.90;;;;;;10405413;28;20091;-85
2022/03/02 03:51:30;;;;;;;68.07;25.77;;;-3.30;99.90;;;;;;10408344;28;20046;-86
2022/03/02 03:56:31;;;;;;;68.23;26.83;;;-3.30;99.90;;;;;;10400612;28;20017;-85
2022/03/02 04:01:32;;;;;;;72.03;27.43;;;-3.40;99.90;;;;;;10393068;28;20033;-84
2022/03/02 04:06:33;;;;;;;63.33;26.73;;;-3.40;99.90;;;;;;10407943;28;20045;-84
2022/03/02 04:11:33;;;;;;;68.07;26.00;;;-3.50;99.90;;;;;;10407745;28;20553;-85
2022/03/02 04:16:35;;;;;;;72.67;27.40;;;-3.50;99.90;;;;;;10407301;28;20132;-86
2022/03/02 04:21:36;;;;;;;68.60;28.07;;;-3.50;99.90;;;;;;10408105;28;20047;-86
2022/03/02 04:26:36;;;;;;;69.50;27.97;;;-3.50;99.90;;;;;;10405552;28;20382;-84
2022/03/02 04:31:37;;;;;;;69.53;29.20;;;-3.50;99.90;;;;;;10406848;28;20018;-86
2022/03/02 04:36:38;;;;;;;77.40;31.83;;;-3.60;99.90;;;;;;10407272;28;20042;-87
2022/03/02 04:41:38;;;;;;;79.00;33.10;;;-3.60;99.90;;;;;;10406659;28;20511;-86
2022/03/02 04:46:39;;;;;;;79.53;32.17;;;-3.70;99.90;;;;;;10407861;28;20045;-85
2022/03/02 04:51:40;;;;;;;73.20;30.90;;;-3.80;99.90;;;;;;10407201;28;20018;-86
2022/03/02 04:56:42;;;;;;;80.57;32.00;;;-3.80;99.90;;;;;;10412516;28;20065;-85
2022/03/02 05:01:42;;;;;;;70.63;29.43;;;-3.80;99.90;;;;;;10413547;28;20040;-85
2022/03/02 05:06:43;;;;;;;77.63;32.63;;;-3.80;99.90;;;;;;10411388;28;20719;-86
2022/03/02 05:11:43;;;;;;;73.03;28.70;;;-3.80;99.90;;;;;;10406591;28;20091;-87
2022/03/02 05:16:44;;;;;;;70.97;29.03;;;-3.80;99.90;;;;;;10425070;28;20060;-88
2022/03/02 05:21:45;;;;;;;63.83;27.07;;;-3.80;99.90;;;;;;10416282;28;20039;-84
2022/03/02 05:26:46;;;;;;;70.47;27.07;;;-3.80;99.90;;;;;;10422016;28;20052;-88
2022/03/02 05:31:46;;;;;;;76.60;29.87;;;-3.70;99.90;;;;;;10412542;28;20033;-83
2022/03/02 05:36:48;;;;;;;67.90;28.67;;;-3.60;99.90;;;;;;10411273;28;20215;-84
2022/03/02 05:41:49;;;;;;;61.97;26.90;;;-3.60;99.90;;;;;;10412077;28;20044;-85
2022/03/02 05:46:50;;;;;;;67.37;28.57;;;-3.70;99.90;;;;;;10411265;28;20571;-85
2022/03/02 05:51:51;;;;;;;66.97;26.50;;;-3.70;99.90;;;;;;10411407;28;20071;-84
2022/03/02 05:56:52;;;;;;;74.80;29.13;;;-3.70;99.90;;;;;;10413082;28;20028;-84
2022/03/02 06:01:52;;;;;;;72.10;30.87;;;-3.70;99.90;;;;;;10412775;28;20038;-85
2022/03/02 06:06:53;;;;;;;76.30;30.47;;;-3.70;99.90;;;;;;10412304;28;20563;-84
2022/03/02 06:11:54;;;;;;;76.50;27.57;;;-3.80;99.90;;;;;;10412618;28;20040;-85
2022/03/02 06:16:55;;;;;;;59.83;24.83;;;-3.80;99.90;;;;;;10411874;28;20049;-85
2022/03/02 06:21:57;;;;;;;58.30;22.50;;;-3.50;99.90;;;;;;10412263;28;20438;-86
2022/03/02 06:26:58;;;;;;;62.90;27.27;;;-3.30;99.90;;;;;;10411824;28;20041;-84
2022/03/02 06:31:59;;;;;;;65.10;25.63;;;-3.00;99.90;;;;;;10412698;28;20061;-85
2022/03/02 06:37:00;;;;;;;68.17;25.37;;;-2.80;99.90;;;;;;10411663;28;20453;-85
2022/03/02 06:42:05;;;;;;;60.57;24.30;;;-2.60;99.90;;;;;;10411185;28;20037;-85
2022/03/02 06:47:10;;;;;;;79.78;31.40;;;-2.50;99.90;;;;;;10411430;28;20485;-84
2022/03/02 06:52:15;;;;;;;64.83;26.00;;;-2.30;99.90;;;;;;10410813;28;20250;-85
2022/03/02 06:57:24;;;;;;;64.87;27.70;;;-2.20;99.90;;;;;;10410776;28;20436;-85
2022/03/02 07:02:34;;;;;;;62.90;29.83;;;-2.10;99.90;;;;;;10410490;28;20539;-85
2022/03/02 07:07:35;;;;;;;72.97;30.23;;;-2.00;99.90;;;;;;10409998;28;20152;-85
2022/03/02 07:12:37;;;;;;;66.47;29.87;;;-1.90;99.90;;;;;;10410074;28;20160;-85
2022/03/02 07:17:39;;;;;;;66.27;28.73;;;-1.70;99.90;;;;;;10408170;28;20612;-84
2022/03/02 07:22:48;;;;;;;70.00;27.87;;;-1.50;99.90;;;;;;10409901;28;20036;-85
2022/03/02 07:27:51;;;;;;;66.97;28.17;;;-1.40;99.90;;;;;;10408175;28;20497;-85
2022/03/02 07:32:55;;;;;;;67.30;29.10;;;-1.20;99.90;;;;;;10410067;28;20029;-84
2022/03/02 07:37:57;;;;;;;72.37;31.63;;;-0.90;98.90;;;;;;10396423;28;20025;-84
2022/03/02 07:42:58;;;;;;;68.13;31.50;;;-0.80;99.20;;;;;;10410306;28;20033;-85
2022/03/02 07:47:59;;;;;;;74.10;31.63;;;-0.70;97.50;;;;;;10409818;28;20036;-85
2022/03/02 07:53:01;;;;;;;62.90;29.23;;;-0.50;98.60;;;;;;10409173;28;20028;-85
2022/03/02 07:58:03;;;;;;;76.70;30.67;;;-0.20;98.00;;;;;;10409097;28;20045;-84
2022/03/02 08:03:07;;;;;;;65.53;28.00;;;0.10;93.00;;;;;;10408643;28;20389;-84
2022/03/02 08:08:08;;;;;;;64.13;27.97;;;0.40;94.00;;;;;;10408705;28;20072;-85
2022/03/02 08:13:12;;;;;;;57.93;27.97;;;0.70;91.20;;;;;;10407118;28;20028;-84
2022/03/02 08:18:12;;;;;;;67.37;30.60;;;1.10;90.70;;;;;;10408444;28;20060;-84
2022/03/02 08:23:13;;;;;;;61.50;27.17;;;1.40;92.30;;;;;;10408473;28;20032;-84
2022/03/02 08:28:16;;;;;;;63.77;26.57;;;1.70;88.60;;;;;;10408245;28;20037;-83
2022/03/02 08:33:21;;;;;;;59.00;25.27;;;1.90;85.00;;;;;;10416708;28;20110;-84
2022/03/02 08:38:23;;;;;;;54.73;21.83;;;2.10;83.60;;;;;;10416735;28;20057;-82
2022/03/02 08:43:23;;;;;;;47.33;22.10;;;2.20;82.50;;;;;;10416318;28;20072;-83
2022/03/02 08:48:24;;;;;;;41.80;18.07;;;2.40;81.50;;;;;;10416661;28;20473;-83
2022/03/02 08:53:26;;;;;;;37.63;15.97;;;2.70;79.90;;;;;;10416259;28;20037;-82
2022/03/02 08:58:28;;;;;;;37.60;17.43;;;2.90;79.60;;;;;;10415822;28;20040;-83
2022/03/02 09:03:34;;;;;;;36.70;17.27;;;3.20;79.50;;;;;;10401417;28;20041;-83
2022/03/02 09:08:34;;;;;;;28.40;14.02;;;3.50;74.70;;;;;;10375282;28;20689;-83
2022/03/02 09:13:39;;;;;;;29.13;13.90;;;3.70;75.40;;;;;;10373849;28;20050;-83
2022/03/02 09:18:40;;;;;;;18.13;10.57;;;3.70;72.50;;;;;;10373979;28;20030;-83
2022/03/02 09:23:42;;;;;;;19.13;8.67;;;3.90;72.80;;;;;;10373622;28;20474;-83
2022/03/02 09:28:45;;;;;;;19.97;10.30;;;3.80;69.00;;;;;;10373152;28;20057;-83
2022/03/02 09:33:54;;;;;;;20.63;10.17;;;4.10;70.00;;;;;;10373345;28;20037;-82
2022/03/02 09:38:55;;;;;;;19.63;10.23;;;4.20;67.70;;;;;;10373466;28;20061;-83
2022/03/02 09:43:59;;;;;;;23.57;10.93;;;4.30;70.00;;;;;;10373179;28;20092;-82
2022/03/02 09:49:09;;;;;;;24.33;11.17;;;4.70;70.30;;;;;;10372991;28;20540;-82
2022/03/02 09:54:10;;;;;;;20.57;11.00;;;5.00;67.40;;;;;;10373182;28;20026;-83
2022/03/02 09:59:11;;;;;;;25.97;11.77;;;5.40;70.20;;;;;;10372806;28;20033;-83
2022/03/02 10:04:21;;;;;;;18.57;9.33;;;5.60;67.60;;;;;;10372036;28;20034;-83
2022/03/02 10:09:23;;;;;;;17.63;9.33;;;5.60;63.00;;;;;;10371995;28;20432;-83
2022/03/02 10:14:23;;;;;;;17.03;8.13;;;5.40;64.20;;;;;;10371610;28;20141;-83
2022/03/02 10:19:29;;;;;;;13.40;6.97;;;5.20;60.70;;;;;;10371643;28;20105;-82
2022/03/02 10:24:34;;;;;;;16.90;8.53;;;5.00;60.80;;;;;;10371509;28;20061;-82
2022/03/02 10:29:48;;;;;;;18.20;9.53;;;4.80;60.80;;;;;;10372320;28;20512;-83
2022/03/02 10:35:00;;;;;;;17.23;8.47;;;5.00;60.90;;;;;;10370837;28;20092;-82
2022/03/02 10:40:09;;;;;;;15.90;7.90;;;5.10;61.50;;;;;;10370910;28;20033;-83
2022/03/02 10:45:23;;;;;;;13.23;8.03;;;5.10;63.10;;;;;;10370537;28;20033;-82
2022/03/02 10:50:27;;;;;;;14.57;7.60;;;5.40;59.20;;;;;;10370707;28;20454;-83
2022/03/02 10:55:30;;;;;;;16.43;7.87;;;5.30;60.40;;;;;;10369982;28;20030;-83
2022/03/02 11:00:32;;;;;;;15.77;7.40;;;5.40;59.40;;;;;;10369936;28;20029;-82
2022/03/02 11:05:33;;;;;;;11.93;6.60;;;5.30;58.50;;;;;;10370184;28;20394;-83
2022/03/02 11:10:37;;;;;;;12.50;7.47;;;5.40;58.50;;;;;;10370121;28;20026;-82
2022/03/02 11:15:53;;;;;;;13.33;6.83;;;5.80;61.60;;;;;;10369620;28;20486;-83
2022/03/02 11:21:00;;;;;;;12.13;7.27;;;5.90;57.70;;;;;;10368958;28;20100;-83
2022/03/02 11:26:11;;;;;;;14.57;8.00;;;5.70;55.80;;;;;;10369054;28;20030;-83
2022/03/02 11:31:29;;;;;;;22.43;11.33;;;5.80;57.70;;;;;;10368706;28;20084;-83
2022/03/02 11:36:34;;;;;;;22.73;12.67;;;5.90;57.60;;;;;;10369349;28;20030;-82
2022/03/02 11:41:38;;;;;;;19.77;10.10;;;5.80;57.00;;;;;;10368253;28;20030;-82
2022/03/02 11:46:47;;;;;;;15.23;7.23;;;6.00;59.50;;;;;;10368822;28;20049;-83
2022/03/02 11:52:07;;;;;;;17.27;8.27;;;6.20;56.80;;;;;;10366923;28;20116;-83
2022/03/02 11:57:08;;;;;;;13.00;7.13;;;6.10;57.20;;;;;;10368354;28;20030;-83
2022/03/02 12:02:17;;;;;;;17.50;7.97;;;6.20;54.80;;;;;;10367992;28;20053;-83
2022/03/02 12:07:18;;;;;;;15.70;7.63;;;6.30;55.40;;;;;;10367417;28;20154;-83
2022/03/02 12:12:22;;;;;;;13.37;7.37;;;6.10;54.90;;;;;;10366796;28;20117;-83
2022/03/02 12:17:30;;;;;;;12.73;6.30;;;6.30;55.00;;;;;;10367653;28;20100;-83
2022/03/02 12:22:33;;;;;;;12.50;6.43;;;6.20;52.30;;;;;;10367884;28;20037;-84
2022/03/02 12:27:34;;;;;;;12.30;6.13;;;6.20;55.90;;;;;;10378367;28;20184;-83
2022/03/02 12:32:37;;;;;;;13.43;6.33;;;6.20;53.70;;;;;;10367759;28;20108;-83
2022/03/02 12:37:39;;;;;;;11.77;6.10;;;6.10;51.90;;;;;;10367486;28;20495;-83
2022/03/02 12:42:47;;;;;;;21.23;9.90;;;6.30;52.70;;;;;;10367496;28;20022;-83
2022/03/02 12:47:48;;;;;;;97.57;47.70;;;6.70;55.80;;;;;;10367040;28;20478;-83
2022/03/02 12:52:50;;;;;;;17.13;8.33;;;6.60;52.00;;;;;;10366587;28;20405;-83
2022/03/02 12:57:51;;;;;;;20.73;9.57;;;6.40;53.00;;;;;;10367191;28;20022;-82
2022/03/02 13:02:56;;;;;;;178.90;80.67;;;6.30;53.40;;;;;;10365854;28;20034;-82
2022/03/02 13:08:30;;;;;;;103.45;43.70;;;6.40;54.00;;;;;;10367317;28;20030;-82
2022/03/02 13:13:31;;;;;;;20.73;8.30;;;6.60;54.00;;;;;;10366229;28;20042;-83
2022/03/02 13:18:38;;;;;;;14.13;6.80;;;6.80;55.00;;;;;;10372012;28;20037;-83
2022/03/02 13:23:39;;;;;;;13.97;7.27;;;6.70;54.90;;;;;;10377591;28;20064;-82
2022/03/02 13:29:18;;;;;;;13.23;6.80;;;6.80;54.60;;;;;;10380647;28;20036;-82
2022/03/02 13:34:20;;;;;;;12.77;6.63;;;6.70;53.60;;;;;;10385301;28;20123;-82
2022/03/02 13:39:46;;;;;;;15.23;6.87;;;6.50;53.50;;;;;;10379724;28;20120;-82
2022/03/02 13:44:47;;;;;;;12.90;6.27;;;6.50;53.30;;;;;;10411387;28;20083;-83
2022/03/02 13:49:49;;;;;;;15.73;7.50;;;6.50;54.70;;;;;;10412390;28;20041;-82
2022/03/02 13:54:50;;;;;;;15.97;7.10;;;6.30;53.10;;;;;;10413030;28;20037;-83
2022/03/02 14:00:13;;;;;;;15.47;6.83;;;6.30;54.60;;;;;;10413728;28;20378;-82
2022/03/02 14:05:16;;;;;;;16.57;7.80;;;6.50;54.90;;;;;;10413224;28;20112;-83
2022/03/02 14:10:18;;;;;;;15.10;7.87;;;6.50;55.00;;;;;;10413113;28;20512;-82
2022/03/02 14:15:21;;;;;;;15.33;8.10;;;6.50;55.50;;;;;;10412536;28;20049;-83
2022/03/02 14:20:32;;;;;;;15.40;8.80;;;6.40;55.10;;;;;;10411554;28;20087;-84
2022/03/02 14:25:33;;;;;;;18.37;8.50;;;6.30;56.00;;;;;;10412250;28;20041;-83
2022/03/02 14:30:39;;;;;;;17.57;8.80;;;6.30;55.90;;;;;;10402317;28;20524;-83
2022/03/02 14:35:41;;;;;;;;;;;6.10;55.20;;;;;;10411476;28;20029;-83
2022/03/02 14:40:44;;;;;;;19.97;9.80;;;6.00;55.30;;;;;;10409777;28;20296;-82
2022/03/02 14:45:50;;;;;;;20.60;9.93;;;5.90;56.30;;;;;;10411973;28;20120;-83
2022/03/02 14:50:55;;;;;;;25.33;10.27;;;5.80;56.60;;;;;;10410729;28;20021;-83
2022/03/02 14:55:57;;;;;;;26.17;11.88;;;5.70;55.40;;;;;;10410297;28;20060;-84
2022/03/02 15:01:07;;;;;;;20.77;10.50;;;5.50;57.00;;;;;;10405599;28;20378;-83
2022/03/02 15:06:17;;;;;;;22.00;10.80;;;5.40;57.10;;;;;;10410177;28;20045;-83
2022/03/02 15:11:19;;;;;;;24.00;11.67;;;5.30;56.30;;;;;;10410497;28;20017;-82
2022/03/02 15:16:20;;;;;;;26.23;11.70;;;5.20;56.60;;;;;;10409382;28;20068;-83
2022/03/02 15:21:22;;;;;;;22.73;11.30;;;5.10;56.10;;;;;;10410887;28;20509;-82
2022/03/02 15:26:24;;;;;;;21.67;10.40;;;5.00;57.10;;;;;;10407893;28;20080;-83
2022/03/02 15:31:25;;;;;;;21.50;9.97;;;4.90;57.10;;;;;;10408418;28;20080;-83
2022/03/02 15:36:26;;;;;;;18.97;9.20;;;4.80;57.60;;;;;;10410044;28;20091;-83
2022/03/02 15:41:27;;;;;;;21.47;9.00;;;4.70;57.30;;;;;;10412262;28;20116;-84
2022/03/02 15:46:27;;;;;;;22.67;9.93;;;4.60;57.30;;;;;;10407219;28;20045;-84
2022/03/02 15:51:28;;;;;;;19.70;9.20;;;4.60;57.70;;;;;;10404487;28;20060;-82
2022/03/02 15:56:29;;;;;;;17.40;8.63;;;4.50;58.40;;;;;;10409401;28;20580;-83
2022/03/02 16:01:31;;;;;;;24.13;11.00;;;4.40;58.50;;;;;;10408334;28;20477;-83
2022/03/02 16:06:32;;;;;;;25.43;11.10;;;4.20;58.60;;;;;;10408213;28;20041;-84
2022/03/02 16:11:42;;;;;;;25.67;11.87;;;4.00;59.60;;;;;;10408458;28;20500;-84
2022/03/02 16:16:48;;;;;;;35.33;15.30;;;3.60;61.40;;;;;;10403878;28;20136;-83
2022/03/02 16:21:51;;;;;;;23.37;10.40;;;3.30;62.80;;;;;;10407519;28;20106;-83
2022/03/02 16:26:51;;;;;;;25.97;11.77;;;2.90;64.10;;;;;;10408509;28;20292;-83
2022/03/02 16:31:52;;;;;;;30.90;14.30;;;2.50;64.70;;;;;;10408571;28;20033;-83
2022/03/02 16:36:53;;;;;;;41.23;17.80;;;2.30;65.70;;;;;;10408330;28;20037;-84
2022/03/02 16:41:53;;;;;;;35.00;16.10;;;1.90;67.60;;;;;;10407636;28;20484;-82
2022/03/02 16:46:55;;;;;;;42.90;17.63;;;1.60;68.70;;;;;;10392431;28;20080;-84
2022/03/02 16:51:56;;;;;;;36.47;16.47;;;1.40;69.50;;;;;;10418727;28;20110;-83
2022/03/02 16:56:56;;;;;;;32.17;14.20;;;1.40;69.70;;;;;;10409753;28;20128;-83
2022/03/02 17:01:57;;;;;;;33.33;14.60;;;1.50;69.30;;;;;;10412369;28;20103;-83
2022/03/02 17:06:58;;;;;;;29.10;12.83;;;1.30;69.80;;;;;;10406027;28;20038;-83
2022/03/02 17:11:58;;;;;;;32.20;13.10;;;1.20;71.00;;;;;;10381394;28;20493;-83
2022/03/02 17:17:00;;;;;;;32.90;13.53;;;1.10;71.20;;;;;;10414119;28;20377;-83
2022/03/02 17:22:01;;;;;;;33.00;14.60;;;0.90;72.50;;;;;;10406511;28;20485;-83
2022/03/02 17:27:02;;;;;;;38.60;17.03;;;0.70;73.40;;;;;;10406306;28;20050;-84
2022/03/02 17:32:05;;;;;;;62.20;24.87;;;0.60;73.80;;;;;;10378521;28;20140;-83
2022/03/02 17:37:11;;;;;;;80.50;31.63;;;0.40;74.40;;;;;;10407518;28;20064;-82
2022/03/02 17:42:13;;;;;;;46.53;18.70;;;0.30;75.80;;;;;;10403370;28;20063;-83
2022/03/02 17:47:14;;;;;;;40.37;17.60;;;0.10;76.10;;;;;;10409252;28;20048;-85
2022/03/02 17:52:15;;;;;;;46.87;19.80;;;0.10;76.80;;;;;;10411019;28;20040;-84
2022/03/02 17:57:17;;;;;;;45.63;20.03;;;0.00;76.80;;;;;;10411221;28;20025;-84
2022/03/02 18:02:18;;;;;;;49.20;20.00;;;0.00;77.30;;;;;;10410206;28;20448;-83
2022/03/02 18:07:19;;;;;;;47.10;20.93;;;0.10;77.10;;;;;;10411720;28;20033;-84
2022/03/02 18:12:19;;;;;;;54.37;20.30;;;0.10;77.50;;;;;;10411038;28;20033;-83
2022/03/02 18:34:29;;;;;;;61.83;26.33;;;-0.20;78.90;;;;;;12224087;22;20604;-84
2022/03/02 18:39:31;;;;;;;62.93;25.70;;;-0.20;78.60;;;;;;10389246;28;20452;-83
2022/03/02 18:50:30;;;;;;;69.00;27.98;;;-0.20;80.20;;;;;;10383164;28;20130;-85
2022/03/02 18:55:31;;;;;;;129.40;43.30;;;-0.40;81.10;;;;;;10360724;28;20041;-83
2022/03/02 19:00:31;;;;;;;87.83;33.37;;;-0.50;82.20;;;;;;10363768;28;20052;-84
2022/03/02 19:05:47;;;;;;;73.60;30.27;;;-0.60;81.60;;;;;;10365504;28;20148;-86
2022/03/02 19:10:48;;;;;;;63.20;29.48;;;-0.70;83.50;;;;;;10366300;28;20034;-88
2022/03/02 19:15:55;;;;;;;58.80;23.57;;;-0.70;82.80;;;;;;10348206;28;20030;-85
2022/03/02 19:20:56;;;;;;;48.80;20.37;;;-0.40;82.50;;;;;;10361122;28;20129;-85
2022/03/02 19:25:59;;;;;;;47.57;19.87;;;-0.20;81.80;;;;;;10365275;28;20042;-82
2022/03/02 19:31:00;;;;;;;42.30;20.13;;;-0.10;81.40;;;;;;10349237;28;20086;-83
2022/03/02 19:36:01;;;;;;;39.30;18.80;;;0.10;81.20;;;;;;10360013;28;20170;-85
2022/03/02 19:41:01;;;;;;;53.20;22.17;;;0.20;80.70;;;;;;10348928;28;20034;-84
2022/03/02 19:46:03;;;;;;;57.07;23.73;;;0.20;80.50;;;;;;10359379;28;20045;-83
2022/03/02 19:51:07;;;;;;;49.30;22.30;;;0.20;80.40;;;;;;10364552;28;20034;-83
2022/03/02 19:56:08;;;;;;;52.00;22.47;;;0.20;80.60;;;;;;10361648;28;20030;-85
2022/03/02 20:01:11;;;;;;;53.90;23.07;;;0.10;80.60;;;;;;10348871;28;20041;-84
2022/03/02 20:06:13;;;;;;;58.73;25.63;;;0.10;80.70;;;;;;10337224;28;20066;-82
2022/03/02 20:11:15;;;;;;;61.73;26.23;;;0.10;80.80;;;;;;10353136;28;20036;-84
2022/03/02 20:16:16;;;;;;;69.53;30.87;;;0.10;80.90;;;;;;10348445;28;20029;-82
2022/03/02 20:21:17;;;;;;;66.57;30.53;;;0.00;81.10;;;;;;10353249;28;20460;-82
2022/03/02 20:26:19;;;;;;;65.33;26.83;;;0.00;81.60;;;;;;10370886;28;20042;-83
2022/03/02 20:31:21;;;;;;;64.43;27.63;;;-0.10;81.70;;;;;;10364523;28;20083;-82
2022/03/02 20:36:22;;;;;;;67.57;29.60;;;-0.30;82.30;;;;;;10330755;28;20054;-82
2022/03/02 20:41:24;;;;;;;70.73;30.37;;;-0.50;83.50;;;;;;10364385;28;20458;-82
2022/03/02 20:46:25;;;;;;;71.10;28.47;;;-0.60;84.20;;;;;;10344410;28;20125;-83
2022/03/02 20:51:26;;;;;;;68.07;27.60;;;-0.70;85.00;;;;;;10373997;28;20080;-83
2022/03/02 20:56:27;;;;;;;71.33;28.13;;;-0.90;85.80;;;;;;10370281;28;20510;-83
2022/03/02 21:01:29;;;;;;;58.70;25.97;;;-0.90;86.50;;;;;;10342880;28;20417;-83
2022/03/02 21:06:31;;;;;;;57.20;23.97;;;-0.90;86.70;;;;;;10358348;28;20037;-83
2022/03/02 21:11:32;;;;;;;56.10;22.50;;;-0.80;86.20;;;;;;10353765;28;20107;-82
2022/03/02 21:16:33;;;;;;;62.43;24.90;;;-0.60;85.30;;;;;;10347556;28;20743;-84
2022/03/02 21:21:35;;;;;;;53.67;24.17;;;-0.50;84.70;;;;;;10349743;28;20036;-84
2022/03/02 21:26:36;;;;;;;60.90;26.30;;;-0.40;84.30;;;;;;10357759;28;20050;-85
2022/03/02 21:31:37;;;;;;;57.00;24.77;;;-0.50;84.10;;;;;;10358179;28;20049;-83
2022/03/02 21:36:37;;;;;;;62.60;27.77;;;-0.50;84.00;;;;;;10331739;28;20257;-83
2022/03/02 21:41:38;;;;;;;66.67;29.17;;;-0.50;84.00;;;;;;10364847;28;20108;-84
2022/03/02 21:46:39;;;;;;;67.10;28.10;;;-0.50;83.90;;;;;;10350610;28;20041;-84
2022/03/02 21:51:39;;;;;;;74.27;29.60;;;-0.70;84.60;;;;;;10372077;28;20528;-84
2022/03/02 21:56:40;;;;;;;65.60;28.93;;;-0.80;85.90;;;;;;10371945;28;20048;-83
2022/03/02 22:01:41;;;;;;;69.47;31.03;;;-0.80;87.20;;;;;;10373064;28;20014;-85
2022/03/02 22:06:41;;;;;;;82.27;32.57;;;-0.90;87.40;;;;;;10371270;28;20034;-83
2022/03/02 22:11:42;;;;;;;72.90;31.33;;;-0.90;88.60;;;;;;10371752;28;20033;-84
2022/03/02 22:16:43;;;;;;;78.83;32.23;;;-1.00;88.80;;;;;;10369995;28;20041;-84
2022/03/02 22:21:43;;;;;;;82.97;33.67;;;-1.10;89.30;;;;;;10369395;28;20059;-84
2022/03/02 22:26:44;;;;;;;84.47;36.67;;;-1.10;90.20;;;;;;10370801;28;20041;-84
2022/03/02 22:31:45;;;;;;;83.13;34.47;;;-1.10;90.40;;;;;;10351877;28;20025;-85
2022/03/02 22:36:47;;;;;;;80.43;34.27;;;-1.20;90.60;;;;;;10370161;28;20560;-85
2022/03/02 22:41:48;;;;;;;93.40;38.83;;;-1.30;90.60;;;;;;10370719;28;20025;-85
2022/03/02 22:46:49;;;;;;;96.27;39.40;;;-1.40;91.30;;;;;;10369988;28;20034;-84
2022/03/02 22:51:51;;;;;;;100.60;41.57;;;-1.40;92.00;;;;;;10351489;28;20034;-84
2022/03/02 22:56:51;;;;;;;95.07;39.40;;;-1.50;92.50;;;;;;10370153;28;20041;-85
2022/03/02 23:02:07;;;;;;;94.67;38.33;;;-1.70;93.10;;;;;;10369628;28;20037;-85
2022/03/02 23:17:46;;;;;;;93.97;41.23;;;-1.90;95.60;;;;;;10369320;28;20041;-85
2022/03/02 23:22:47;;;;;;;93.93;39.27;;;-2.10;97.10;;;;;;10368957;28;20678;-85
2022/03/02 23:27:48;;;;;;;97.50;39.67;;;-2.20;97.50;;;;;;10368608;28;20474;-86
2022/03/02 23:32:48;;;;;;;90.50;40.40;;;-2.30;98.80;;;;;;10368137;28;20072;-85
2022/03/02 23:37:49;;;;;;;96.40;39.23;;;-2.30;98.70;;;;;;10367237;28;20054;-85
2022/03/02 23:42:50;;;;;;;81.07;36.27;;;-2.30;99.90;;;;;;10361582;28;20044;-85
2022/03/02 23:47:51;;;;;;;86.23;36.70;;;-2.40;99.90;;;;;;10367369;28;20033;-85
2022/03/02 23:52:51;;;;;;;98.07;38.17;;;-2.40;99.90;;;;;;10367670;28;20041;-83
2022/03/02 23:57:52;;;;;;;78.50;35.90;;;-2.50;99.90;;;;;;10349583;28;20025;-84
